Wilsonville, Illinois
Current Conditions -  °F | °C
As of 5:15 AM on Saturday 25 Oct 2014 (Local Time) from K3LF Reporting Station
Scattered Clouds Scattered Clouds  
Wind Chill: 57°   Ceiling: Unl
Heat Index: 57°   Visibility: 10mi
Dew Point: 54°   Wind: 7mph
Humidity: 88%   Direction: 250°WSW
Pressure: 29.98"   Gusts: NA
Location:  39.07°N, 89.86°W
Report Text: K3LF 251015Z AUTO 25006KT 10SM SCT029 14/12 A2998 RMK AO2 T01400120
Loading
Personal Weather Stations






























Interactive Weather Map
Tropical Storm Tracking
New forecast layout! Learn more

10-Day Weather Forecast

Advertisements
Track Severe Weather on mobile